sensor_id;sensor_type;location;lat;lon;timestamp;P1;durP1;ratioP1;P2;durP2;ratioP2
36833;SDS011;48003;52.084;5.224;2024-03-08T00:00:37;38.4;;;20.11;;
36833;SDS011;48003;52.084;5.224;2024-03-08T00:02:13;35.0;;;18.8;;
36833;SDS011;48003;52.084;5.224;2024-03-08T00:03:49;34.21;;;18.8;;
36833;SDS011;48003;52.084;5.224;2024-03-08T00:07:01;35.81;;;19.7;;
36833;SDS011;48003;52.084;5.224;2024-03-08T00:08:38;41.2;;;19.41;;
36833;SDS011;48003;52.084;5.224;2024-03-08T00:10:15;41.2;;;19.41;;
36833;SDS011;48003;52.084;5.224;2024-03-08T00:11:50;38.0;;;19.91;;
36833;SDS011;48003;52.084;5.224;2024-03-08T00:15:03;35.0;;;19.11;;
36833;SDS011;48003;52.084;5.224;2024-03-08T00:16:40;39.4;;;19.41;;
36833;SDS011;48003;52.084;5.224;2024-03-08T00:18:16;37.1;;;19.61;;
36833;SDS011;48003;52.084;5.224;2024-03-08T00:21:28;38.4;;;20.2;;
36833;SDS011;48003;52.084;5.224;2024-03-08T00:23:04;40.71;;;20.41;;
36833;SDS011;48003;52.084;5.224;2024-03-08T00:24:40;40.0;;;19.3;;
36833;SDS011;48003;52.084;5.224;2024-03-08T00:27:53;34.81;;;19.2;;
36833;SDS011;48003;52.084;5.224;2024-03-08T00:29:28;36.81;;;20.0;;
36833;SDS011;48003;52.084;5.224;2024-03-08T00:31:05;35.6;;;19.7;;
36833;SDS011;48003;52.084;5.224;2024-03-08T00:34:17;40.81;;;20.2;;
36833;SDS011;48003;52.084;5.224;2024-03-08T00:35:53;38.81;;;19.8;;
36833;SDS011;48003;52.084;5.224;2024-03-08T00:37:29;39.31;;;20.2;;
36833;SDS011;48003;52.084;5.224;2024-03-08T00:39:05;37.6;;;20.2;;
36833;SDS011;48003;52.084;5.224;2024-03-08T00:42:17;39.81;;;19.8;;
36833;SDS011;48003;52.084;5.224;2024-03-08T00:43:54;38.9;;;19.61;;
36833;SDS011;48003;52.084;5.224;2024-03-08T00:45:30;41.8;;;20.5;;
36833;SDS011;48003;52.084;5.224;2024-03-08T00:48:44;36.1;;;19.91;;
36833;SDS011;48003;52.084;5.224;2024-03-08T00:50:20;35.9;;;19.3;;
36833;SDS011;48003;52.084;5.224;2024-03-08T00:51:56;35.5;;;20.11;;
36833;SDS011;48003;52.084;5.224;2024-03-08T00:55:08;37.31;;;19.5;;
36833;SDS011;48003;52.084;5.224;2024-03-08T00:56:44;39.5;;;20.3;;
36833;SDS011;48003;52.084;5.224;2024-03-08T00:58:20;37.71;;;20.11;;
36833;SDS011;48003;52.084;5.224;2024-03-08T00:59:56;37.0;;;20.3;;
36833;SDS011;48003;52.084;5.224;2024-03-08T01:03:09;38.81;;;20.9;;
36833;SDS011;48003;52.084;5.224;2024-03-08T01:04:45;40.31;;;20.3;;
36833;SDS011;48003;52.084;5.224;2024-03-08T01:06:21;36.1;;;19.7;;
36833;SDS011;48003;52.084;5.224;2024-03-08T01:09:33;36.71;;;20.0;;
36833;SDS011;48003;52.084;5.224;2024-03-08T01:11:09;35.21;;;20.2;;
36833;SDS011;48003;52.084;5.224;2024-03-08T01:12:45;37.4;;;20.5;;
36833;SDS011;48003;52.084;5.224;2024-03-08T01:15:58;36.71;;;20.41;;
36833;SDS011;48003;52.084;5.224;2024-03-08T01:17:34;37.81;;;19.61;;
36833;SDS011;48003;52.084;5.224;2024-03-08T01:19:11;37.81;;;20.0;;
36833;SDS011;48003;52.084;5.224;2024-03-08T01:22:23;39.6;;;20.7;;
36833;SDS011;48003;52.084;5.224;2024-03-08T01:23:59;35.4;;;19.8;;
36833;SDS011;48003;52.084;5.224;2024-03-08T01:25:36;36.9;;;20.0;;
36833;SDS011;48003;52.084;5.224;2024-03-08T01:27:12;41.7;;;21.1;;
36833;SDS011;48003;52.084;5.224;2024-03-08T01:30:25;38.5;;;20.11;;
36833;SDS011;48003;52.084;5.224;2024-03-08T01:32:01;39.71;;;20.7;;
36833;SDS011;48003;52.084;5.224;2024-03-08T01:33:37;35.5;;;20.0;;
36833;SDS011;48003;52.084;5.224;2024-03-08T01:36:50;38.9;;;20.7;;
36833;SDS011;48003;52.084;5.224;2024-03-08T01:38:26;33.6;;;19.8;;
36833;SDS011;48003;52.084;5.224;2024-03-08T01:40:02;35.9;;;20.3;;
36833;SDS011;48003;52.084;5.224;2024-03-08T01:43:17;34.9;;;19.8;;
36833;SDS011;48003;52.084;5.224;2024-03-08T01:44:54;37.6;;;19.7;;
36833;SDS011;48003;52.084;5.224;2024-03-08T01:46:30;38.4;;;20.8;;
36833;SDS011;48003;52.084;5.224;2024-03-08T01:48:07;39.1;;;20.3;;
36833;SDS011;48003;52.084;5.224;2024-03-08T01:51:20;36.6;;;20.3;;
36833;SDS011;48003;52.084;5.224;2024-03-08T01:52:56;36.71;;;20.6;;
36833;SDS011;48003;52.084;5.224;2024-03-08T01:54:34;43.3;;;21.2;;
36833;SDS011;48003;52.084;5.224;2024-03-08T01:57:47;38.4;;;20.3;;
36833;SDS011;48003;52.084;5.224;2024-03-08T01:59:23;37.71;;;21.2;;
36833;SDS011;48003;52.084;5.224;2024-03-08T02:00:59;36.1;;;19.91;;
36833;SDS011;48003;52.084;5.224;2024-03-08T02:04:18;37.6;;;20.11;;
36833;SDS011;48003;52.084;5.224;2024-03-08T02:05:54;34.1;;;19.8;;
36833;SDS011;48003;52.084;5.224;2024-03-08T02:07:31;38.21;;;20.11;;
36833;SDS011;48003;52.084;5.224;2024-03-08T02:09:06;37.4;;;20.9;;
36833;SDS011;48003;52.084;5.224;2024-03-08T02:12:21;37.31;;;21.2;;
36833;SDS011;48003;52.084;5.224;2024-03-08T02:13:57;35.4;;;20.5;;
36833;SDS011;48003;52.084;5.224;2024-03-08T02:15:53;35.0;;;20.41;;
36833;SDS011;48003;52.084;5.224;2024-03-08T02:17:38;39.0;;;19.91;;
36833;SDS011;48003;52.084;5.224;2024-03-08T02:20:50;40.21;;;21.0;;
36833;SDS011;48003;52.084;5.224;2024-03-08T02:22:28;38.0;;;20.41;;
36833;SDS011;48003;52.084;5.224;2024-03-08T02:24:04;36.71;;;19.91;;
36833;SDS011;48003;52.084;5.224;2024-03-08T02:25:42;35.9;;;20.41;;
36833;SDS011;48003;52.084;5.224;2024-03-08T02:28:59;37.21;;;20.7;;
36833;SDS011;48003;52.084;5.224;2024-03-08T02:30:35;34.0;;;20.0;;
36833;SDS011;48003;52.084;5.224;2024-03-08T02:32:11;36.5;;;20.11;;
36833;SDS011;48003;52.084;5.224;2024-03-08T02:35:23;34.9;;;20.5;;
36833;SDS011;48003;52.084;5.224;2024-03-08T02:36:59;35.21;;;20.2;;
36833;SDS011;48003;52.084;5.224;2024-03-08T02:38:35;37.4;;;20.5;;
36833;SDS011;48003;52.084;5.224;2024-03-08T02:41:47;37.4;;;21.2;;
36833;SDS011;48003;52.084;5.224;2024-03-08T02:43:23;40.5;;;21.1;;
36833;SDS011;48003;52.084;5.224;2024-03-08T02:45:00;35.4;;;21.0;;
36833;SDS011;48003;52.084;5.224;2024-03-08T02:48:12;38.1;;;20.6;;
36833;SDS011;48003;52.084;5.224;2024-03-08T02:49:50;36.31;;;20.7;;
36833;SDS011;48003;52.084;5.224;2024-03-08T02:51:26;38.4;;;21.7;;
36833;SDS011;48003;52.084;5.224;2024-03-08T02:53:02;38.4;;;21.7;;
36833;SDS011;48003;52.084;5.224;2024-03-08T02:56:15;36.6;;;20.6;;
36833;SDS011;48003;52.084;5.224;2024-03-08T02:57:52;34.71;;;20.8;;
36833;SDS011;48003;52.084;5.224;2024-03-08T02:59:28;38.4;;;20.3;;
36833;SDS011;48003;52.084;5.224;2024-03-08T03:02:40;39.1;;;21.4;;
36833;SDS011;48003;52.084;5.224;2024-03-08T03:04:16;38.21;;;21.3;;
36833;SDS011;48003;52.084;5.224;2024-03-08T03:05:52;37.21;;;21.1;;
36833;SDS011;48003;52.084;5.224;2024-03-08T03:09:04;36.21;;;20.41;;
36833;SDS011;48003;52.084;5.224;2024-03-08T03:10:40;37.31;;;21.1;;
36833;SDS011;48003;52.084;5.224;2024-03-08T03:12:16;40.5;;;21.8;;
36833;SDS011;48003;52.084;5.224;2024-03-08T03:13:52;38.9;;;20.9;;
36833;SDS011;48003;52.084;5.224;2024-03-08T03:17:05;39.6;;;21.4;;
36833;SDS011;48003;52.084;5.224;2024-03-08T03:18:41;38.5;;;21.7;;
36833;SDS011;48003;52.084;5.224;2024-03-08T03:20:17;36.31;;;21.0;;
36833;SDS011;48003;52.084;5.224;2024-03-08T03:23:30;34.4;;;21.3;;
36833;SDS011;48003;52.084;5.224;2024-03-08T03:25:07;39.31;;;21.7;;
36833;SDS011;48003;52.084;5.224;2024-03-08T03:26:43;38.5;;;22.0;;
36833;SDS011;48003;52.084;5.224;2024-03-08T03:29:55;35.81;;;21.1;;
36833;SDS011;48003;52.084;5.224;2024-03-08T03:31:33;35.1;;;20.9;;
36833;SDS011;48003;52.084;5.224;2024-03-08T03:33:09;36.6;;;20.9;;
36833;SDS011;48003;52.084;5.224;2024-03-08T03:34:45;37.0;;;21.3;;
36833;SDS011;48003;52.084;5.224;2024-03-08T03:37:57;37.21;;;21.0;;
36833;SDS011;48003;52.084;5.224;2024-03-08T03:39:33;36.31;;;21.0;;
36833;SDS011;48003;52.084;5.224;2024-03-08T03:41:09;35.6;;;21.8;;
36833;SDS011;48003;52.084;5.224;2024-03-08T03:44:21;38.9;;;21.5;;
36833;SDS011;48003;52.084;5.224;2024-03-08T03:45:57;36.31;;;21.7;;
36833;SDS011;48003;52.084;5.224;2024-03-08T03:47:34;36.81;;;21.8;;
36833;SDS011;48003;52.084;5.224;2024-03-08T03:50:46;37.1;;;21.3;;
36833;SDS011;48003;52.084;5.224;2024-03-08T03:52:22;37.9;;;21.8;;
36833;SDS011;48003;52.084;5.224;2024-03-08T03:53:58;36.6;;;21.1;;
36833;SDS011;48003;52.084;5.224;2024-03-08T03:57:10;38.0;;;22.0;;
36833;SDS011;48003;52.084;5.224;2024-03-08T03:58:47;34.9;;;21.6;;
36833;SDS011;48003;52.084;5.224;2024-03-08T04:00:22;37.81;;;21.9;;
36833;SDS011;48003;52.084;5.224;2024-03-08T04:01:58;35.71;;;21.4;;
36833;SDS011;48003;52.084;5.224;2024-03-08T04:05:11;35.81;;;21.9;;
36833;SDS011;48003;52.084;5.224;2024-03-08T04:06:47;37.1;;;22.4;;
36833;SDS011;48003;52.084;5.224;2024-03-08T04:08:23;37.31;;;21.5;;
36833;SDS011;48003;52.084;5.224;2024-03-08T04:13:11;32.9;;;20.5;;
36833;SDS011;48003;52.084;5.224;2024-03-08T04:14:47;37.71;;;22.0;;
36833;SDS011;48003;52.084;5.224;2024-03-08T04:18:00;33.6;;;20.9;;
36833;SDS011;48003;52.084;5.224;2024-03-08T04:19:35;36.9;;;21.8;;
36833;SDS011;48003;52.084;5.224;2024-03-08T04:21:12;36.81;;;21.1;;
36833;SDS011;48003;52.084;5.224;2024-03-08T04:24:24;35.71;;;21.6;;
36833;SDS011;48003;52.084;5.224;2024-03-08T04:26:00;35.1;;;21.3;;
36833;SDS011;48003;52.084;5.224;2024-03-08T04:27:37;33.9;;;21.8;;
36833;SDS011;48003;52.084;5.224;2024-03-08T04:29:14;34.4;;;21.8;;
36833;SDS011;48003;52.084;5.224;2024-03-08T04:32:26;36.6;;;22.3;;
36833;SDS011;48003;52.084;5.224;2024-03-08T04:34:02;37.5;;;21.9;;
36833;SDS011;48003;52.084;5.224;2024-03-08T04:35:38;35.0;;;21.3;;
36833;SDS011;48003;52.084;5.224;2024-03-08T04:38:51;33.3;;;21.3;;
36833;SDS011;48003;52.084;5.224;2024-03-08T04:40:27;35.6;;;21.5;;
36833;SDS011;48003;52.084;5.224;2024-03-08T04:42:03;35.5;;;21.2;;
36833;SDS011;48003;52.084;5.224;2024-03-08T04:45:17;35.21;;;22.4;;
36833;SDS011;48003;52.084;5.224;2024-03-08T04:46:53;34.9;;;21.3;;
36833;SDS011;48003;52.084;5.224;2024-03-08T04:48:29;38.31;;;21.7;;
36833;SDS011;48003;52.084;5.224;2024-03-08T04:53:19;35.6;;;22.3;;
36833;SDS011;48003;52.084;5.224;2024-03-08T04:54:55;37.31;;;21.8;;
36833;SDS011;48003;52.084;5.224;2024-03-08T04:56:31;37.6;;;22.0;;
36833;SDS011;48003;52.084;5.224;2024-03-08T04:59:43;34.5;;;22.0;;
36833;SDS011;48003;52.084;5.224;2024-03-08T05:01:19;35.0;;;21.4;;
36833;SDS011;48003;52.084;5.224;2024-03-08T05:02:55;36.1;;;21.8;;
36833;SDS011;48003;52.084;5.224;2024-03-08T05:06:07;36.31;;;21.5;;
36833;SDS011;48003;52.084;5.224;2024-03-08T05:07:43;36.6;;;22.2;;
36833;SDS011;48003;52.084;5.224;2024-03-08T05:09:20;34.5;;;21.1;;
36833;SDS011;48003;52.084;5.224;2024-03-08T05:12:33;33.3;;;20.9;;
36833;SDS011;48003;52.084;5.224;2024-03-08T05:14:09;35.31;;;21.5;;
36833;SDS011;48003;52.084;5.224;2024-03-08T05:15:47;38.21;;;22.7;;
36833;SDS011;48003;52.084;5.224;2024-03-08T05:17:24;36.81;;;21.5;;
36833;SDS011;48003;52.084;5.224;2024-03-08T05:20:37;34.4;;;21.4;;
36833;SDS011;48003;52.084;5.224;2024-03-08T05:22:12;35.6;;;21.7;;
36833;SDS011;48003;52.084;5.224;2024-03-08T05:23:49;37.6;;;21.8;;
36833;SDS011;48003;52.084;5.224;2024-03-08T05:27:03;37.81;;;21.9;;
36833;SDS011;48003;52.084;5.224;2024-03-08T05:28:40;38.21;;;22.1;;
36833;SDS011;48003;52.084;5.224;2024-03-08T05:30:17;36.6;;;21.8;;
36833;SDS011;48003;52.084;5.224;2024-03-08T05:31:53;40.0;;;22.9;;
36833;SDS011;48003;52.084;5.224;2024-03-08T05:35:05;35.71;;;21.8;;
36833;SDS011;48003;52.084;5.224;2024-03-08T05:36:41;36.5;;;22.3;;
36833;SDS011;48003;52.084;5.224;2024-03-08T05:41:30;36.6;;;22.3;;
36833;SDS011;48003;52.084;5.224;2024-03-08T05:43:06;37.4;;;22.2;;
36833;SDS011;48003;52.084;5.224;2024-03-08T05:44:42;37.5;;;22.6;;
36833;SDS011;48003;52.084;5.224;2024-03-08T05:47:54;36.4;;;22.9;;
36833;SDS011;48003;52.084;5.224;2024-03-08T05:49:30;35.31;;;22.1;;
36833;SDS011;48003;52.084;5.224;2024-03-08T05:51:06;39.31;;;22.9;;
36833;SDS011;48003;52.084;5.224;2024-03-08T05:54:19;39.31;;;22.9;;
36833;SDS011;48003;52.084;5.224;2024-03-08T05:55:56;38.6;;;22.4;;
36833;SDS011;48003;52.084;5.224;2024-03-08T05:57:32;34.81;;;22.1;;
36833;SDS011;48003;52.084;5.224;2024-03-08T05:59:08;37.81;;;22.6;;
36833;SDS011;48003;52.084;5.224;2024-03-08T06:02:20;36.4;;;21.8;;
36833;SDS011;48003;52.084;5.224;2024-03-08T06:03:56;37.81;;;22.6;;
36833;SDS011;48003;52.084;5.224;2024-03-08T06:05:32;36.6;;;22.1;;
36833;SDS011;48003;52.084;5.224;2024-03-08T06:08:45;36.0;;;22.5;;
36833;SDS011;48003;52.084;5.224;2024-03-08T06:10:21;36.81;;;22.5;;
36833;SDS011;48003;52.084;5.224;2024-03-08T06:11:57;36.1;;;22.4;;
36833;SDS011;48003;52.084;5.224;2024-03-08T06:15:10;43.1;;;24.1;;
36833;SDS011;48003;52.084;5.224;2024-03-08T06:16:47;34.6;;;21.8;;
36833;SDS011;48003;52.084;5.224;2024-03-08T06:18:23;39.0;;;22.8;;
36833;SDS011;48003;52.084;5.224;2024-03-08T06:21:35;36.4;;;21.7;;
36833;SDS011;48003;52.084;5.224;2024-03-08T06:23:11;37.21;;;22.0;;
36833;SDS011;48003;52.084;5.224;2024-03-08T06:24:48;38.71;;;23.2;;
36833;SDS011;48003;52.084;5.224;2024-03-08T06:26:24;36.31;;;22.0;;
36833;SDS011;48003;52.084;5.224;2024-03-08T06:29:37;36.5;;;22.1;;
36833;SDS011;48003;52.084;5.224;2024-03-08T06:31:13;41.1;;;23.6;;
36833;SDS011;48003;52.084;5.224;2024-03-08T06:32:49;35.6;;;22.2;;
36833;SDS011;48003;52.084;5.224;2024-03-08T06:36:01;39.0;;;23.5;;
36833;SDS011;48003;52.084;5.224;2024-03-08T06:37:37;37.71;;;22.9;;
36833;SDS011;48003;52.084;5.224;2024-03-08T06:39:14;38.31;;;23.1;;
36833;SDS011;48003;52.084;5.224;2024-03-08T06:42:26;38.1;;;23.3;;
36833;SDS011;48003;52.084;5.224;2024-03-08T06:44:02;35.5;;;23.0;;
36833;SDS011;48003;52.084;5.224;2024-03-08T06:45:39;38.0;;;22.9;;
36833;SDS011;48003;52.084;5.224;2024-03-08T06:47:15;38.9;;;23.4;;
36833;SDS011;48003;52.084;5.224;2024-03-08T06:50:27;40.6;;;22.9;;
36833;SDS011;48003;52.084;5.224;2024-03-08T06:52:04;37.71;;;22.5;;
36833;SDS011;48003;52.084;5.224;2024-03-08T06:53:40;36.4;;;21.9;;
36833;SDS011;48003;52.084;5.224;2024-03-08T06:56:53;38.1;;;22.7;;
36833;SDS011;48003;52.084;5.224;2024-03-08T06:58:29;38.0;;;22.7;;
36833;SDS011;48003;52.084;5.224;2024-03-08T07:00:06;35.81;;;22.8;;
36833;SDS011;48003;52.084;5.224;2024-03-08T07:03:19;39.31;;;23.3;;
36833;SDS011;48003;52.084;5.224;2024-03-08T07:04:55;38.9;;;23.6;;
36833;SDS011;48003;52.084;5.224;2024-03-08T07:06:31;36.71;;;22.8;;
36833;SDS011;48003;52.084;5.224;2024-03-08T07:08:09;37.4;;;22.7;;
36833;SDS011;48003;52.084;5.224;2024-03-08T07:11:21;41.3;;;23.5;;
36833;SDS011;48003;52.084;5.224;2024-03-08T07:12:57;38.71;;;23.1;;
36833;SDS011;48003;52.084;5.224;2024-03-08T07:14:33;42.7;;;24.3;;
36833;SDS011;48003;52.084;5.224;2024-03-08T07:17:45;37.71;;;22.0;;
36833;SDS011;48003;52.084;5.224;2024-03-08T07:19:22;40.5;;;22.6;;
36833;SDS011;48003;52.084;5.224;2024-03-08T07:20:58;40.4;;;23.1;;
36833;SDS011;48003;52.084;5.224;2024-03-08T07:24:11;36.21;;;22.3;;
36833;SDS011;48003;52.084;5.224;2024-03-08T07:25:48;43.2;;;23.4;;
36833;SDS011;48003;52.084;5.224;2024-03-08T07:27:24;37.71;;;22.5;;
36833;SDS011;48003;52.084;5.224;2024-03-08T07:30:36;39.9;;;23.9;;
36833;SDS011;48003;52.084;5.224;2024-03-08T07:32:12;37.4;;;23.8;;
36833;SDS011;48003;52.084;5.224;2024-03-08T07:33:48;37.21;;;23.3;;
36833;SDS011;48003;52.084;5.224;2024-03-08T07:35:24;41.1;;;24.2;;
36833;SDS011;48003;52.084;5.224;2024-03-08T07:38:37;42.4;;;23.8;;
36833;SDS011;48003;52.084;5.224;2024-03-08T07:40:13;38.9;;;23.0;;
36833;SDS011;48003;52.084;5.224;2024-03-08T07:41:49;38.81;;;23.3;;
36833;SDS011;48003;52.084;5.224;2024-03-08T07:45:01;37.81;;;22.8;;
36833;SDS011;48003;52.084;5.224;2024-03-08T07:46:38;38.31;;;23.1;;
36833;SDS011;48003;52.084;5.224;2024-03-08T07:48:14;42.2;;;24.2;;
36833;SDS011;48003;52.084;5.224;2024-03-08T07:51:26;35.0;;;23.2;;
36833;SDS011;48003;52.084;5.224;2024-03-08T07:53:03;39.1;;;23.1;;
36833;SDS011;48003;52.084;5.224;2024-03-08T07:54:38;40.0;;;23.4;;
36833;SDS011;48003;52.084;5.224;2024-03-08T07:56:15;37.1;;;22.5;;
36833;SDS011;48003;52.084;5.224;2024-03-08T07:59:28;39.4;;;23.0;;
36833;SDS011;48003;52.084;5.224;2024-03-08T08:01:04;37.6;;;22.9;;
36833;SDS011;48003;52.084;5.224;2024-03-08T08:02:40;37.21;;;22.4;;
36833;SDS011;48003;52.084;5.224;2024-03-08T08:05:52;40.21;;;23.1;;
36833;SDS011;48003;52.084;5.224;2024-03-08T08:07:29;38.81;;;22.9;;
36833;SDS011;48003;52.084;5.224;2024-03-08T08:09:05;40.21;;;22.6;;
36833;SDS011;48003;52.084;5.224;2024-03-08T08:12:17;38.4;;;21.9;;
36833;SDS011;48003;52.084;5.224;2024-03-08T08:13:53;40.0;;;22.4;;
36833;SDS011;48003;52.084;5.224;2024-03-08T08:15:29;38.21;;;22.3;;
36833;SDS011;48003;52.084;5.224;2024-03-08T08:18:41;35.1;;;22.2;;
36833;SDS011;48003;52.084;5.224;2024-03-08T08:20:17;39.0;;;23.1;;
36833;SDS011;48003;52.084;5.224;2024-03-08T08:21:53;35.6;;;22.1;;
36833;SDS011;48003;52.084;5.224;2024-03-08T08:23:30;34.4;;;22.4;;
36833;SDS011;48003;52.084;5.224;2024-03-08T08:26:43;36.1;;;22.4;;
36833;SDS011;48003;52.084;5.224;2024-03-08T08:28:19;35.4;;;22.7;;
36833;SDS011;48003;52.084;5.224;2024-03-08T08:29:54;35.9;;;22.7;;
36833;SDS011;48003;52.084;5.224;2024-03-08T08:33:08;35.9;;;21.8;;
36833;SDS011;48003;52.084;5.224;2024-03-08T08:34:44;37.31;;;22.8;;
36833;SDS011;48003;52.084;5.224;2024-03-08T08:36:20;32.71;;;21.3;;
36833;SDS011;48003;52.084;5.224;2024-03-08T08:39:33;36.71;;;23.1;;
36833;SDS011;48003;52.084;5.224;2024-03-08T08:41:09;34.6;;;22.0;;
36833;SDS011;48003;52.084;5.224;2024-03-08T08:42:45;34.9;;;22.7;;
36833;SDS011;48003;52.084;5.224;2024-03-08T08:44:21;36.21;;;22.8;;
36833;SDS011;48003;52.084;5.224;2024-03-08T08:47:33;33.4;;;21.8;;
36833;SDS011;48003;52.084;5.224;2024-03-08T08:49:10;35.71;;;22.9;;
36833;SDS011;48003;52.084;5.224;2024-03-08T08:50:46;39.0;;;22.5;;
36833;SDS011;48003;52.084;5.224;2024-03-08T08:53:59;36.4;;;21.9;;
36833;SDS011;48003;52.084;5.224;2024-03-08T08:55:36;38.1;;;22.5;;
36833;SDS011;48003;52.084;5.224;2024-03-08T08:57:12;38.71;;;22.9;;
36833;SDS011;48003;52.084;5.224;2024-03-08T09:00:24;36.21;;;22.0;;
36833;SDS011;48003;52.084;5.224;2024-03-08T09:02:01;36.0;;;22.0;;
36833;SDS011;48003;52.084;5.224;2024-03-08T09:03:37;38.0;;;22.3;;
36833;SDS011;48003;52.084;5.224;2024-03-08T09:06:49;38.0;;;22.3;;
36833;SDS011;48003;52.084;5.224;2024-03-08T09:08:26;35.9;;;21.8;;
36833;SDS011;48003;52.084;5.224;2024-03-08T09:10:02;33.71;;;21.3;;
36833;SDS011;48003;52.084;5.224;2024-03-08T09:11:39;38.31;;;21.2;;
36833;SDS011;48003;52.084;5.224;2024-03-08T09:14:51;34.71;;;21.2;;
36833;SDS011;48003;52.084;5.224;2024-03-08T09:16:28;36.31;;;21.8;;
36833;SDS011;48003;52.084;5.224;2024-03-08T09:18:04;35.5;;;21.5;;
36833;SDS011;48003;52.084;5.224;2024-03-08T09:21:17;33.71;;;21.0;;
36833;SDS011;48003;52.084;5.224;2024-03-08T09:22:54;36.0;;;21.5;;
36833;SDS011;48003;52.084;5.224;2024-03-08T09:24:30;33.21;;;21.3;;
36833;SDS011;48003;52.084;5.224;2024-03-08T09:27:42;34.71;;;22.4;;
36833;SDS011;48003;52.084;5.224;2024-03-08T09:29:18;31.5;;;20.2;;
36833;SDS011;48003;52.084;5.224;2024-03-08T09:30:54;30.6;;;20.3;;
36833;SDS011;48003;52.084;5.224;2024-03-08T09:32:30;32.9;;;21.2;;
36833;SDS011;48003;52.084;5.224;2024-03-08T09:35:42;34.1;;;21.2;;
36833;SDS011;48003;52.084;5.224;2024-03-08T09:37:18;32.71;;;20.8;;
36833;SDS011;48003;52.084;5.224;2024-03-08T09:38:55;35.71;;;20.9;;
36833;SDS011;48003;52.084;5.224;2024-03-08T09:42:07;32.1;;;20.9;;
36833;SDS011;48003;52.084;5.224;2024-03-08T09:43:44;38.6;;;22.7;;
36833;SDS011;48003;52.084;5.224;2024-03-08T09:45:21;33.71;;;20.9;;
36833;SDS011;48003;52.084;5.224;2024-03-08T09:48:34;36.0;;;21.7;;
36833;SDS011;48003;52.084;5.224;2024-03-08T09:50:11;42.0;;;21.5;;
36833;SDS011;48003;52.084;5.224;2024-03-08T09:51:48;38.6;;;21.5;;
36833;SDS011;48003;52.084;5.224;2024-03-08T09:53:26;36.81;;;20.5;;
36833;SDS011;48003;52.084;5.224;2024-03-08T09:56:40;38.9;;;20.8;;
36833;SDS011;48003;52.084;5.224;2024-03-08T09:58:18;34.1;;;20.11;;
36833;SDS011;48003;52.084;5.224;2024-03-08T09:59:54;34.81;;;20.41;;
36833;SDS011;48003;52.084;5.224;2024-03-08T10:03:07;34.0;;;20.6;;
36833;SDS011;48003;52.084;5.224;2024-03-08T10:04:43;28.7;;;19.7;;
36833;SDS011;48003;52.084;5.224;2024-03-08T10:06:22;32.8;;;20.6;;
36833;SDS011;48003;52.084;5.224;2024-03-08T10:09:35;31.9;;;19.2;;
36833;SDS011;48003;52.084;5.224;2024-03-08T10:11:11;31.1;;;19.3;;
36833;SDS011;48003;52.084;5.224;2024-03-08T10:12:47;32.71;;;20.5;;
36833;SDS011;48003;52.084;5.224;2024-03-08T10:14:24;31.3;;;20.11;;
36833;SDS011;48003;52.084;5.224;2024-03-08T10:17:39;30.2;;;20.0;;
36833;SDS011;48003;52.084;5.224;2024-03-08T10:19:16;29.6;;;19.41;;
36833;SDS011;48003;52.084;5.224;2024-03-08T10:21:03;34.1;;;19.7;;
36833;SDS011;48003;52.084;5.224;2024-03-08T10:22:41;28.9;;;19.3;;
36833;SDS011;48003;52.084;5.224;2024-03-08T10:25:53;27.9;;;18.41;;
36833;SDS011;48003;52.084;5.224;2024-03-08T10:27:29;30.3;;;19.5;;
36833;SDS011;48003;52.084;5.224;2024-03-08T10:29:05;28.7;;;19.0;;
36833;SDS011;48003;52.084;5.224;2024-03-08T10:32:22;29.7;;;18.8;;
36833;SDS011;48003;52.084;5.224;2024-03-08T10:33:59;29.6;;;19.3;;
36833;SDS011;48003;52.084;5.224;2024-03-08T10:35:35;28.2;;;18.11;;
36833;SDS011;48003;52.084;5.224;2024-03-08T10:38:51;29.0;;;19.3;;
36833;SDS011;48003;52.084;5.224;2024-03-08T10:40:28;31.4;;;19.3;;
36833;SDS011;48003;52.084;5.224;2024-03-08T10:42:05;29.2;;;18.8;;
36833;SDS011;48003;52.084;5.224;2024-03-08T10:43:59;26.9;;;18.0;;
36833;SDS011;48003;52.084;5.224;2024-03-08T10:45:54;28.3;;;18.11;;
36833;SDS011;48003;52.084;5.224;2024-03-08T10:49:27;26.5;;;18.2;;
36833;SDS011;48003;52.084;5.224;2024-03-08T10:51:08;27.6;;;17.5;;
36833;SDS011;48003;52.084;5.224;2024-03-08T10:52:48;26.7;;;17.5;;
36833;SDS011;48003;52.084;5.224;2024-03-08T10:54:25;28.7;;;17.0;;
36833;SDS011;48003;52.084;5.224;2024-03-08T10:57:40;22.8;;;15.4;;
36833;SDS011;48003;52.084;5.224;2024-03-08T10:59:16;23.5;;;15.7;;
36833;SDS011;48003;52.084;5.224;2024-03-08T11:00:53;27.0;;;16.61;;
36833;SDS011;48003;52.084;5.224;2024-03-08T11:02:31;28.2;;;17.5;;
36833;SDS011;48003;52.084;5.224;2024-03-08T11:05:44;26.3;;;16.8;;
36833;SDS011;48003;52.084;5.224;2024-03-08T11:07:20;25.5;;;16.7;;
36833;SDS011;48003;52.084;5.224;2024-03-08T11:08:56;24.1;;;15.7;;
36833;SDS011;48003;52.084;5.224;2024-03-08T11:12:20;26.3;;;15.7;;
36833;SDS011;48003;52.084;5.224;2024-03-08T11:13:59;25.8;;;15.6;;
36833;SDS011;48003;52.084;5.224;2024-03-08T11:15:36;23.4;;;14.8;;
36833;SDS011;48003;52.084;5.224;2024-03-08T11:17:14;23.1;;;15.6;;
36833;SDS011;48003;52.084;5.224;2024-03-08T11:20:30;24.9;;;15.8;;
36833;SDS011;48003;52.084;5.224;2024-03-08T11:22:06;25.0;;;15.8;;
36833;SDS011;48003;52.084;5.224;2024-03-08T11:23:42;24.9;;;16.11;;
36833;SDS011;48003;52.084;5.224;2024-03-08T11:27:16;22.9;;;15.2;;
36833;SDS011;48003;52.084;5.224;2024-03-08T11:28:52;24.4;;;16.0;;
36833;SDS011;48003;52.084;5.224;2024-03-08T11:30:28;24.2;;;16.11;;
36833;SDS011;48003;52.084;5.224;2024-03-08T11:32:05;24.4;;;15.5;;
36833;SDS011;48003;52.084;5.224;2024-03-08T11:35:23;24.3;;;16.0;;
36833;SDS011;48003;52.084;5.224;2024-03-08T11:36:59;23.9;;;16.2;;
36833;SDS011;48003;52.084;5.224;2024-03-08T11:38:37;26.2;;;16.5;;
36833;SDS011;48003;52.084;5.224;2024-03-08T11:40:16;23.7;;;15.5;;
36833;SDS011;48003;52.084;5.224;2024-03-08T11:43:28;24.8;;;16.2;;
36833;SDS011;48003;52.084;5.224;2024-03-08T11:45:08;24.1;;;14.9;;
36833;SDS011;48003;52.084;5.224;2024-03-08T11:46:44;23.3;;;14.9;;
36833;SDS011;48003;52.084;5.224;2024-03-08T11:49:57;21.9;;;15.3;;
36833;SDS011;48003;52.084;5.224;2024-03-08T11:51:33;20.11;;;14.1;;
36833;SDS011;48003;52.084;5.224;2024-03-08T11:53:09;23.6;;;14.7;;
36833;SDS011;48003;52.084;5.224;2024-03-08T11:54:48;22.4;;;14.7;;
36833;SDS011;48003;52.084;5.224;2024-03-08T11:58:04;21.8;;;14.1;;
36833;SDS011;48003;52.084;5.224;2024-03-08T11:59:41;20.2;;;13.8;;
36833;SDS011;48003;52.084;5.224;2024-03-08T12:01:25;19.7;;;12.5;;
36833;SDS011;48003;52.084;5.224;2024-03-08T12:04:38;18.41;;;12.1;;
36833;SDS011;48003;52.084;5.224;2024-03-08T12:06:15;19.41;;;13.1;;
36833;SDS011;48003;52.084;5.224;2024-03-08T12:07:55;17.3;;;11.7;;
36833;SDS011;48003;52.084;5.224;2024-03-08T12:09:32;16.11;;;11.1;;
36833;SDS011;48003;52.084;5.224;2024-03-08T12:12:44;18.41;;;12.1;;
36833;SDS011;48003;52.084;5.224;2024-03-08T12:14:21;17.2;;;11.3;;
36833;SDS011;48003;52.084;5.224;2024-03-08T12:15:57;17.61;;;11.3;;
36833;SDS011;48003;52.084;5.224;2024-03-08T12:19:10;19.11;;;11.2;;
36833;SDS011;48003;52.084;5.224;2024-03-08T12:20:47;16.9;;;12.2;;
36833;SDS011;48003;52.084;5.224;2024-03-08T12:22:24;22.9;;;12.7;;
36833;SDS011;48003;52.084;5.224;2024-03-08T12:25:40;17.91;;;11.9;;
36833;SDS011;48003;52.084;5.224;2024-03-08T12:27:17;18.5;;;12.3;;
36833;SDS011;48003;52.084;5.224;2024-03-08T12:28:56;18.3;;;12.5;;
36833;SDS011;48003;52.084;5.224;2024-03-08T12:32:27;18.5;;;12.3;;
36833;SDS011;48003;52.084;5.224;2024-03-08T12:35:41;16.3;;;12.0;;
36833;SDS011;48003;52.084;5.224;2024-03-08T12:37:26;18.8;;;12.2;;
36833;SDS011;48003;52.084;5.224;2024-03-08T12:39:02;20.0;;;12.7;;